createdAt,value
2023-06-26T00:02:21.775Z,20.63
2023-06-26T00:04:49.364Z,20.62
2023-06-26T00:07:16.983Z,20.60
2023-06-26T00:09:44.635Z,20.60
2023-06-26T00:12:11.866Z,20.59
2023-06-26T00:14:39.492Z,20.58
2023-06-26T00:17:06.795Z,20.58
2023-06-26T00:19:34.394Z,20.56
2023-06-26T00:22:01.612Z,20.55
2023-06-26T00:24:29.174Z,20.55
2023-06-26T00:26:56.544Z,20.53
2023-06-26T00:29:24.104Z,20.52
2023-06-26T00:31:51.423Z,20.51
2023-06-26T00:34:19.123Z,20.49
2023-06-26T00:36:46.471Z,20.49
2023-06-26T00:39:14.848Z,20.44
2023-06-26T00:41:42.245Z,20.39
2023-06-26T00:44:09.812Z,20.35
2023-06-26T00:46:37.221Z,20.33
2023-06-26T00:49:05.980Z,20.31
2023-06-26T00:51:33.430Z,20.26
2023-06-26T00:54:02.484Z,20.21
2023-06-26T00:56:32.612Z,20.19
2023-06-26T00:59:00.222Z,20.18
2023-06-26T01:01:27.553Z,20.15
2023-06-26T01:03:56.672Z,20.12
2023-06-26T01:06:27.237Z,20.09
2023-06-26T01:08:55.107Z,20.07
2023-06-26T01:11:22.487Z,20.06
2023-06-26T01:13:52.190Z,20.04
2023-06-26T01:16:20.713Z,20.00
2023-06-26T01:18:50.080Z,19.95
2023-06-26T01:21:19.652Z,19.93
2023-06-26T01:24:15.977Z,19.85
2023-06-26T01:26:45.203Z,19.88
2023-06-26T01:29:16.250Z,19.87
2023-06-26T01:31:47.499Z,19.86
2023-06-26T01:34:19.432Z,19.82
2023-06-26T01:36:47.315Z,19.80
2023-06-26T01:39:19.968Z,19.76
2023-06-26T01:41:47.684Z,19.74
2023-06-26T01:44:31.117Z,19.68
2023-06-26T01:47:06.521Z,19.65
2023-06-26T01:49:53.458Z,19.60
2023-06-26T01:52:44.316Z,19.59
2023-06-26T01:55:43.626Z,19.54
2023-06-26T01:58:11.739Z,19.56
2023-06-26T02:00:39.964Z,19.53
2023-06-26T02:03:08.786Z,19.52
2023-06-26T02:05:36.704Z,19.48
2023-06-26T02:08:04.414Z,19.35
2023-06-26T02:10:32.503Z,19.33
2023-06-26T02:12:59.823Z,19.34
2023-06-26T02:15:27.337Z,19.29
2023-06-26T02:17:54.694Z,19.26
2023-06-26T02:20:22.269Z,19.27
2023-06-26T02:22:49.842Z,19.26
2023-06-26T02:25:19.032Z,19.29
2023-06-26T02:27:46.269Z,19.23
2023-06-26T02:30:13.904Z,19.22
2023-06-26T02:32:41.230Z,19.21
2023-06-26T02:35:09.442Z,19.20
2023-06-26T02:37:36.722Z,19.15
2023-06-26T02:40:06.162Z,19.12
2023-06-26T02:42:33.649Z,19.10
2023-06-26T02:45:01.215Z,19.12
2023-06-26T02:47:28.527Z,19.12
2023-06-26T02:49:56.097Z,19.10
2023-06-26T02:52:23.387Z,19.10
2023-06-26T02:54:50.944Z,19.09
2023-06-26T02:57:18.317Z,19.04
2023-06-26T02:59:45.873Z,19.04
2023-06-26T03:02:13.278Z,19.02
2023-06-26T03:04:40.872Z,18.97
2023-06-26T03:07:08.193Z,18.87
2023-06-26T03:09:35.991Z,18.85
2023-06-26T03:12:03.467Z,18.88
2023-06-26T03:14:33.110Z,18.88
2023-06-26T03:17:04.497Z,18.87
2023-06-26T03:19:32.113Z,18.86
2023-06-26T03:21:59.360Z,18.87
2023-06-26T03:24:26.932Z,18.87
2023-06-26T03:26:54.273Z,18.84
2023-06-26T03:29:21.904Z,18.88
2023-06-26T03:31:49.221Z,18.93
2023-06-26T03:34:16.732Z,18.95
2023-06-26T03:36:44.003Z,18.97
2023-06-26T03:39:11.541Z,18.98
2023-06-26T03:41:38.833Z,18.96
2023-06-26T03:44:06.383Z,18.99
2023-06-26T03:46:33.668Z,19.07
2023-06-26T03:49:01.234Z,19.09
2023-06-26T03:51:28.690Z,19.06
2023-06-26T03:53:56.223Z,19.08
2023-06-26T03:56:23.530Z,19.13
2023-06-26T03:58:51.123Z,19.17
2023-06-26T04:01:18.455Z,19.21
2023-06-26T04:03:46.083Z,19.22
2023-06-26T04:06:13.373Z,19.26
2023-06-26T04:08:40.983Z,19.26
2023-06-26T04:11:08.303Z,19.29
2023-06-26T04:13:35.891Z,19.32
2023-06-26T04:16:03.376Z,19.35
2023-06-26T04:18:31.007Z,19.36
2023-06-26T04:21:14.629Z,19.33
2023-06-26T04:23:42.476Z,19.35
2023-06-26T04:26:10.366Z,19.36
2023-06-26T04:28:38.008Z,19.38
2023-06-26T04:31:05.561Z,19.44
2023-06-26T04:33:33.563Z,19.48
2023-06-26T04:36:04.572Z,19.41
2023-06-26T04:38:36.134Z,19.37
2023-06-26T04:41:04.284Z,19.41
2023-06-26T04:43:31.859Z,19.44
2023-06-26T04:45:59.181Z,19.47
2023-06-26T04:48:28.815Z,19.52
2023-06-26T04:50:57.192Z,19.54
2023-06-26T04:53:25.424Z,19.54
2023-06-26T04:55:53.707Z,19.60
2023-06-26T04:58:21.843Z,19.66
2023-06-26T05:00:49.616Z,19.70
2023-06-26T05:03:19.057Z,19.74
2023-06-26T05:05:46.831Z,19.75
2023-06-26T05:08:23.461Z,19.74
2023-06-26T05:10:51.164Z,19.78
2023-06-26T05:13:20.526Z,19.83
2023-06-26T05:15:48.470Z,19.85
2023-06-26T05:18:16.130Z,19.90
2023-06-26T05:20:44.010Z,19.95
2023-06-26T05:23:13.785Z,19.93
2023-06-26T05:25:42.077Z,19.92
2023-06-26T05:28:11.870Z,19.91
2023-06-26T05:30:39.745Z,19.90
2023-06-26T05:33:11.786Z,20.04
2023-06-26T05:35:40.143Z,20.03
2023-06-26T05:38:08.399Z,20.03
2023-06-26T05:40:36.533Z,20.06
2023-06-26T05:43:04.962Z,20.02
2023-06-26T05:45:32.184Z,20.06
2023-06-26T05:48:00.603Z,20.14
2023-06-26T05:50:29.401Z,20.20
2023-06-26T05:52:57.400Z,20.29
2023-06-26T05:55:25.596Z,20.37
2023-06-26T05:57:54.953Z,20.40
2023-06-26T06:00:22.881Z,20.45
2023-06-26T06:02:50.550Z,20.40
2023-06-26T06:05:18.204Z,20.49
2023-06-26T06:07:45.825Z,20.54
2023-06-26T06:10:13.176Z,20.58
2023-06-26T06:12:40.796Z,20.69
2023-06-26T06:15:09.163Z,20.80
2023-06-26T06:17:37.084Z,20.87
2023-06-26T06:20:06.143Z,21.03
2023-06-26T06:22:33.788Z,21.11
2023-06-26T06:25:01.909Z,21.19
2023-06-26T06:27:29.890Z,21.29
2023-06-26T06:29:57.167Z,21.32
2023-06-26T06:32:24.787Z,21.33
2023-06-26T06:34:52.019Z,21.46
2023-06-26T06:37:19.592Z,21.65
2023-06-26T06:39:47.005Z,21.66
2023-06-26T06:42:14.607Z,21.67
2023-06-26T06:44:42.019Z,21.60
2023-06-26T06:47:09.633Z,21.82
2023-06-26T06:49:36.900Z,22.03
2023-06-26T06:52:04.957Z,22.05
2023-06-26T06:54:32.196Z,22.16
2023-06-26T06:56:59.835Z,22.17
2023-06-26T06:59:27.220Z,22.25
2023-06-26T07:01:54.860Z,22.33
2023-06-26T07:04:22.125Z,22.38
2023-06-26T07:06:49.767Z,22.53
2023-06-26T07:09:17.060Z,22.59
2023-06-26T07:11:44.598Z,22.66
2023-06-26T07:14:11.956Z,22.85
2023-06-26T07:16:39.641Z,22.92
2023-06-26T07:19:07.209Z,22.98
2023-06-26T07:21:34.717Z,23.07
2023-06-26T07:24:01.993Z,23.23
2023-06-26T07:26:43.737Z,23.35
2023-06-26T07:29:12.912Z,23.41
2023-06-26T07:31:40.529Z,23.41
2023-06-26T07:34:07.785Z,23.56
2023-06-26T07:36:35.347Z,23.66
2023-06-26T07:39:02.772Z,23.50
2023-06-26T07:41:32.495Z,23.71
2023-06-26T07:44:00.656Z,23.84
2023-06-26T07:46:28.336Z,24.00
2023-06-26T07:48:55.902Z,24.16
2023-06-26T07:51:23.699Z,24.25
2023-06-26T07:53:50.972Z,24.37
2023-06-26T07:56:19.110Z,24.49
2023-06-26T07:58:46.395Z,24.54
2023-06-26T08:01:13.933Z,24.60
2023-06-26T08:03:41.755Z,24.73
2023-06-26T08:06:12.486Z,24.79
2023-06-26T08:08:40.108Z,24.98
2023-06-26T08:11:07.754Z,25.23
2023-06-26T08:13:35.134Z,25.06
2023-06-26T08:16:02.755Z,25.40
2023-06-26T08:18:30.065Z,25.53
2023-06-26T08:20:57.716Z,25.74
2023-06-26T08:23:27.046Z,25.78
2023-06-26T08:25:54.868Z,25.85
2023-06-26T08:28:22.124Z,25.85
2023-06-26T08:30:49.930Z,26.22
2023-06-26T08:33:17.287Z,26.61
2023-06-26T08:35:44.831Z,26.96
2023-06-26T08:38:12.177Z,26.90
2023-06-26T08:40:40.154Z,27.01
2023-06-26T08:43:07.669Z,27.07
2023-06-26T08:45:35.296Z,27.10
2023-06-26T08:48:05.250Z,27.02
2023-06-26T08:50:37.222Z,27.16
2023-06-26T08:53:52.842Z,27.05
2023-06-26T08:56:38.503Z,27.06
2023-06-26T08:59:15.500Z,27.18
2023-06-26T09:01:44.940Z,27.27
2023-06-26T09:04:14.619Z,27.36
2023-06-26T09:06:50.627Z,27.64
2023-06-26T09:09:19.107Z,28.17
2023-06-26T09:11:46.632Z,28.52
2023-06-26T09:14:15.398Z,28.73
2023-06-26T09:16:43.790Z,29.08
2023-06-26T09:19:13.272Z,29.35
2023-06-26T09:21:43.329Z,29.43
2023-06-26T09:24:12.076Z,29.76
2023-06-26T09:26:41.662Z,29.83
2023-06-26T09:29:11.020Z,29.71
2023-06-26T09:31:42.557Z,29.43
2023-06-26T09:34:11.634Z,29.92
2023-06-26T09:36:40.661Z,29.77
2023-06-26T09:39:12.908Z,29.25
2023-06-26T09:41:46.146Z,29.46
2023-06-26T09:44:15.753Z,29.29
2023-06-26T09:46:47.879Z,29.28
2023-06-26T09:49:15.385Z,29.26
2023-06-26T09:51:43.940Z,29.32
2023-06-26T09:54:11.903Z,29.62
2023-06-26T09:56:39.632Z,29.90
2023-06-26T09:59:08.282Z,30.01
2023-06-26T10:01:43.403Z,30.15
2023-06-26T10:04:11.005Z,30.23
2023-06-26T10:06:53.528Z,30.29
2023-06-26T10:09:22.892Z,30.50
2023-06-26T10:12:02.522Z,30.47
2023-06-26T10:14:40.661Z,30.20
2023-06-26T10:17:12.655Z,29.93
2023-06-26T10:19:44.644Z,29.95
2023-06-26T10:22:20.371Z,29.82
2023-06-26T10:24:51.864Z,29.76
2023-06-26T10:27:22.681Z,29.74
2023-06-26T10:30:04.420Z,29.18
2023-06-26T10:32:33.890Z,29.31
2023-06-26T10:35:04.251Z,29.37
2023-06-26T10:37:48.166Z,29.45
2023-06-26T10:40:26.049Z,29.57
2023-06-26T10:43:10.848Z,29.44
2023-06-26T10:45:43.718Z,29.63
2023-06-26T10:48:11.396Z,29.64
2023-06-26T10:50:39.166Z,29.51
2023-06-26T10:53:36.421Z,29.32
2023-06-26T10:56:11.062Z,29.60
2023-06-26T10:58:44.037Z,29.72
2023-06-26T11:01:24.643Z,29.56
2023-06-26T11:04:05.781Z,29.43
2023-06-26T11:06:35.801Z,29.65
2023-06-26T11:09:06.233Z,29.96
2023-06-26T11:11:55.909Z,29.99
2023-06-26T11:14:25.157Z,30.24
2023-06-26T11:16:53.401Z,30.31
2023-06-26T11:19:22.069Z,30.41
2023-06-26T11:21:50.291Z,30.44
2023-06-26T11:24:18.038Z,30.38
2023-06-26T11:26:47.772Z,30.31
2023-06-26T11:29:15.473Z,30.29
2023-06-26T11:31:43.817Z,30.26
2023-06-26T11:34:14.860Z,30.40
2023-06-26T11:36:46.871Z,30.70
2023-06-26T11:39:14.568Z,30.75
2023-06-26T11:41:43.130Z,30.61
2023-06-26T11:44:11.989Z,30.50
2023-06-26T11:46:39.828Z,30.35
2023-06-26T11:49:09.900Z,30.42
2023-06-26T11:51:37.719Z,30.45
2023-06-26T11:54:06.149Z,30.31
2023-06-26T11:56:34.142Z,30.44
2023-06-26T11:59:14.111Z,30.46
2023-06-26T12:01:47.025Z,30.32
2023-06-26T12:04:20.822Z,30.24
2023-06-26T12:06:52.631Z,30.36
2023-06-26T12:09:22.344Z,30.49
2023-06-26T12:11:54.164Z,30.58
2023-06-26T12:14:24.192Z,30.71
2023-06-26T12:16:51.517Z,30.80
2023-06-26T12:19:25.198Z,30.72
2023-06-26T12:21:53.750Z,30.82
2023-06-26T12:24:23.268Z,30.96
2023-06-26T12:26:58.284Z,30.51
2023-06-26T12:29:35.784Z,30.41
2023-06-26T12:32:03.616Z,30.64
2023-06-26T12:34:37.798Z,30.76
2023-06-26T12:37:11.491Z,30.98
2023-06-26T12:39:58.873Z,31.12
2023-06-26T12:42:28.776Z,31.31
2023-06-26T12:45:00.019Z,31.43
2023-06-26T12:47:32.462Z,31.58
2023-06-26T12:50:00.188Z,31.78
2023-06-26T12:52:27.658Z,31.60
2023-06-26T12:54:57.605Z,31.40
2023-06-26T12:57:25.772Z,31.07
2023-06-26T12:59:53.516Z,30.56
2023-06-26T13:02:21.132Z,30.95
2023-06-26T13:04:49.378Z,31.12
2023-06-26T13:07:16.986Z,31.37
2023-06-26T13:09:46.819Z,31.58
2023-06-26T13:12:14.419Z,31.81
2023-06-26T13:14:41.986Z,31.96
2023-06-26T13:17:10.138Z,31.89
2023-06-26T13:19:38.096Z,32.02
2023-06-26T13:22:05.762Z,32.06
2023-06-26T13:24:33.346Z,31.68
2023-06-26T13:27:00.660Z,31.35
2023-06-26T13:29:28.222Z,31.38
2023-06-26T13:31:55.652Z,31.54
2023-06-26T13:34:25.122Z,31.07
2023-06-26T13:36:52.718Z,30.76
2023-06-26T13:39:20.395Z,30.67
2023-06-26T13:41:47.705Z,30.56
2023-06-26T13:44:31.753Z,30.79
2023-06-26T13:47:03.058Z,30.88
2023-06-26T13:49:30.672Z,30.77
2023-06-26T13:51:58.034Z,30.67
2023-06-26T13:54:25.848Z,30.62
2023-06-26T13:56:53.150Z,30.60
2023-06-26T13:59:22.201Z,30.48
2023-06-26T14:01:50.804Z,30.49
2023-06-26T14:04:18.432Z,30.41
2023-06-26T14:06:46.631Z,30.58
2023-06-26T14:09:14.403Z,30.75
2023-06-26T14:11:41.747Z,30.85
2023-06-26T14:14:10.150Z,30.71
2023-06-26T14:16:37.486Z,30.64
2023-06-26T14:19:05.933Z,30.45
2023-06-26T14:21:34.620Z,30.39
2023-06-26T14:24:03.660Z,30.42
2023-06-26T14:26:31.167Z,30.06
2023-06-26T14:28:58.777Z,30.17
2023-06-26T14:31:26.283Z,30.11
2023-06-26T14:33:54.263Z,30.26
2023-06-26T14:36:21.552Z,30.28
2023-06-26T14:38:49.087Z,30.29
2023-06-26T14:41:16.849Z,30.11
2023-06-26T14:43:46.736Z,29.99
2023-06-26T14:46:14.678Z,29.98
2023-06-26T14:48:42.506Z,29.75
2023-06-26T14:51:09.870Z,29.77
2023-06-26T14:53:37.436Z,29.58
2023-06-26T14:56:06.911Z,29.59
2023-06-26T14:58:34.517Z,29.30
2023-06-26T15:01:01.746Z,29.32
2023-06-26T15:03:29.439Z,29.22
2023-06-26T15:05:56.882Z,29.53
2023-06-26T15:08:24.543Z,29.70
2023-06-26T15:10:51.862Z,29.53
2023-06-26T15:13:19.444Z,29.64
2023-06-26T15:15:46.870Z,29.50
2023-06-26T15:18:14.483Z,29.51
2023-06-26T15:20:41.901Z,29.51
2023-06-26T15:23:09.784Z,29.44
2023-06-26T15:25:37.955Z,29.33
2023-06-26T15:28:06.815Z,29.16
2023-06-26T15:30:34.842Z,29.31
2023-06-26T15:33:02.591Z,29.26
2023-06-26T15:35:29.964Z,29.26
2023-06-26T15:37:57.510Z,29.27
2023-06-26T15:40:25.252Z,29.34
2023-06-26T15:42:56.265Z,29.33
2023-06-26T15:45:26.757Z,29.06
2023-06-26T15:47:54.888Z,29.20
2023-06-26T15:50:22.700Z,29.26
2023-06-26T15:52:51.064Z,29.28
2023-06-26T15:55:18.851Z,29.22
2023-06-26T15:57:46.492Z,29.22
2023-06-26T16:00:16.466Z,29.20
2023-06-26T16:02:44.209Z,29.17
2023-06-26T16:05:11.812Z,29.11
2023-06-26T16:07:55.727Z,29.15
2023-06-26T16:10:23.830Z,28.88
2023-06-26T16:12:57.678Z,28.82
2023-06-26T16:15:25.015Z,28.92
2023-06-26T16:17:52.598Z,28.83
2023-06-26T16:20:19.872Z,28.74
2023-06-26T16:22:47.549Z,28.79
2023-06-26T16:25:14.938Z,28.79
2023-06-26T16:27:46.521Z,28.88
2023-06-26T16:30:14.763Z,28.95
2023-06-26T16:32:42.457Z,28.92
2023-06-26T16:35:09.987Z,28.89
2023-06-26T16:37:37.577Z,28.80
2023-06-26T16:40:06.271Z,28.67
2023-06-26T16:42:33.867Z,28.51
2023-06-26T16:45:01.206Z,28.28
2023-06-26T16:47:31.326Z,28.44
2023-06-26T16:50:01.598Z,28.41
2023-06-26T16:52:29.342Z,28.35
2023-06-26T16:54:56.623Z,28.23
2023-06-26T16:57:24.266Z,28.31
2023-06-26T16:59:51.533Z,28.21
2023-06-26T17:02:19.184Z,28.25
2023-06-26T17:04:46.492Z,28.27
2023-06-26T17:07:14.150Z,28.30
2023-06-26T17:09:41.505Z,28.28
2023-06-26T17:12:09.473Z,28.29
2023-06-26T17:14:36.825Z,28.31
2023-06-26T17:17:04.922Z,28.17
2023-06-26T17:19:32.917Z,28.17
2023-06-26T17:22:00.506Z,28.18
2023-06-26T17:24:29.056Z,28.14
2023-06-26T17:27:08.159Z,28.09
2023-06-26T17:29:35.470Z,28.10
2023-06-26T17:32:03.096Z,28.13
2023-06-26T17:34:30.430Z,28.16
2023-06-26T17:36:57.995Z,28.13
2023-06-26T17:39:27.164Z,28.13
2023-06-26T17:41:56.339Z,28.09
2023-06-26T17:44:23.707Z,28.06
2023-06-26T17:46:51.369Z,27.97
2023-06-26T17:49:18.762Z,27.89
2023-06-26T17:51:46.423Z,27.90
2023-06-26T17:54:13.848Z,27.73
2023-06-26T17:56:41.530Z,27.77
2023-06-26T17:59:08.872Z,27.81
2023-06-26T18:01:36.636Z,27.70
2023-06-26T18:04:04.749Z,27.62
2023-06-26T18:06:32.488Z,27.59
2023-06-26T18:09:00.077Z,27.57
2023-06-26T18:11:27.944Z,27.52
2023-06-26T18:13:55.868Z,27.47
2023-06-26T18:16:23.578Z,27.38
2023-06-26T18:18:50.906Z,27.38
2023-06-26T18:21:18.548Z,27.30
2023-06-26T18:23:48.502Z,27.25
2023-06-26T18:26:18.122Z,27.11
2023-06-26T18:28:47.892Z,27.09
2023-06-26T18:31:15.662Z,27.03
2023-06-26T18:33:43.000Z,26.94
2023-06-26T18:36:10.987Z,26.91
2023-06-26T18:38:38.455Z,26.87
2023-06-26T18:41:13.628Z,26.81
2023-06-26T18:43:48.449Z,26.77
2023-06-26T18:46:16.946Z,26.68
2023-06-26T18:48:44.751Z,26.61
2023-06-26T18:51:12.425Z,26.51
2023-06-26T18:53:42.276Z,26.37
2023-06-26T18:56:09.931Z,26.23
2023-06-26T18:58:37.801Z,26.23
2023-06-26T19:01:05.795Z,26.19
2023-06-26T19:03:33.274Z,26.08
2023-06-26T19:06:00.892Z,26.10
2023-06-26T19:08:28.241Z,26.09
2023-06-26T19:10:55.851Z,26.00
2023-06-26T19:13:23.128Z,25.96
2023-06-26T19:15:50.790Z,25.94
2023-06-26T19:18:18.171Z,25.96
2023-06-26T19:20:45.915Z,25.85
2023-06-26T19:23:13.400Z,25.66
2023-06-26T19:25:41.328Z,25.63
2023-06-26T19:28:10.566Z,25.49
2023-06-26T19:30:39.364Z,25.41
2023-06-26T19:33:07.048Z,25.46
2023-06-26T19:35:34.753Z,25.41
2023-06-26T19:38:05.458Z,25.50
2023-06-26T19:40:37.128Z,25.40
2023-06-26T19:43:05.532Z,25.25
2023-06-26T19:45:33.623Z,25.23
2023-06-26T19:48:01.174Z,25.20
2023-06-26T19:50:29.226Z,25.19
2023-06-26T19:52:56.660Z,25.18
2023-06-26T19:55:24.426Z,25.08
2023-06-26T19:57:52.195Z,24.96
2023-06-26T20:00:20.200Z,24.97
2023-06-26T20:02:47.885Z,24.92
2023-06-26T20:05:15.589Z,24.77
2023-06-26T20:07:42.979Z,24.80
2023-06-26T20:10:10.796Z,24.78
2023-06-26T20:12:38.086Z,24.69
2023-06-26T20:15:06.651Z,24.65
2023-06-26T20:17:34.036Z,24.78
2023-06-26T20:20:01.672Z,24.60
2023-06-26T20:22:29.216Z,24.56
2023-06-26T20:24:56.914Z,24.50
2023-06-26T20:27:24.374Z,24.37
2023-06-26T20:29:51.965Z,24.33
2023-06-26T20:32:19.355Z,24.22
2023-06-26T20:34:46.966Z,24.21
2023-06-26T20:37:14.288Z,24.11
2023-06-26T20:39:42.256Z,24.25
2023-06-26T20:42:10.692Z,24.19
2023-06-26T20:44:38.585Z,24.21
2023-06-26T20:47:10.686Z,24.14
2023-06-26T20:49:39.080Z,24.06
2023-06-26T20:52:11.573Z,24.07
2023-06-26T20:54:40.579Z,23.99
2023-06-26T20:57:10.227Z,23.95
2023-06-26T20:59:41.534Z,24.02
2023-06-26T21:02:08.913Z,23.87
2023-06-26T21:04:38.776Z,23.88
2023-06-26T21:07:07.823Z,23.90
2023-06-26T21:09:36.260Z,23.88
2023-06-26T21:12:04.714Z,23.83
2023-06-26T21:14:33.022Z,23.83
2023-06-26T21:17:00.665Z,23.80
2023-06-26T21:19:28.476Z,23.77
2023-06-26T21:21:56.026Z,23.74
2023-06-26T21:24:24.014Z,23.49
2023-06-26T21:26:51.376Z,23.57
2023-06-26T21:29:19.080Z,23.56
2023-06-26T21:31:46.420Z,23.64
2023-06-26T21:34:14.189Z,23.67
2023-06-26T21:36:41.500Z,23.58
2023-06-26T21:39:09.067Z,23.41
2023-06-26T21:41:36.381Z,23.60
2023-06-26T21:44:04.302Z,23.46
2023-06-26T21:46:31.802Z,23.50
2023-06-26T21:48:59.605Z,23.63
2023-06-26T21:51:26.911Z,23.44
2023-06-26T21:53:54.604Z,23.47
2023-06-26T21:56:21.906Z,23.45
2023-06-26T21:58:49.590Z,23.32
2023-06-26T22:01:16.988Z,23.36
2023-06-26T22:03:44.627Z,23.31
2023-06-26T22:06:11.918Z,23.39
2023-06-26T22:08:39.592Z,23.33
2023-06-26T22:11:06.958Z,23.40
2023-06-26T22:13:34.597Z,23.20
2023-06-26T22:16:01.897Z,23.26
2023-06-26T22:18:29.541Z,23.36
2023-06-26T22:20:56.985Z,23.29
2023-06-26T22:23:24.635Z,23.31
2023-06-26T22:25:53.931Z,23.03
2023-06-26T22:28:21.521Z,23.07
2023-06-26T22:30:48.934Z,23.17
2023-06-26T22:33:16.572Z,23.25
2023-06-26T22:35:44.466Z,23.15
2023-06-26T22:38:13.727Z,23.18
2023-06-26T22:40:41.648Z,23.25
2023-06-26T22:43:10.255Z,23.23
2023-06-26T22:45:37.856Z,23.24
2023-06-26T22:48:06.049Z,23.22
2023-06-26T22:50:34.495Z,23.25
2023-06-26T22:53:02.291Z,23.16
2023-06-26T22:55:35.786Z,23.07
2023-06-26T22:58:03.391Z,23.14
2023-06-26T23:00:30.801Z,23.10
2023-06-26T23:02:58.473Z,23.12
2023-06-26T23:05:26.132Z,23.12
2023-06-26T23:07:53.700Z,23.00
2023-06-26T23:10:21.159Z,22.94
2023-06-26T23:12:48.886Z,22.93
2023-06-26T23:15:16.585Z,22.87
2023-06-26T23:17:46.212Z,22.86
2023-06-26T23:20:13.901Z,22.85
2023-06-26T23:22:43.375Z,22.80
2023-06-26T23:25:11.011Z,22.72
2023-06-26T23:27:42.691Z,22.75
2023-06-26T23:30:12.002Z,22.77
2023-06-26T23:32:44.698Z,22.78
2023-06-26T23:35:12.843Z,22.72
2023-06-26T23:37:41.817Z,22.67
2023-06-26T23:40:10.665Z,22.62
2023-06-26T23:42:41.062Z,22.58
2023-06-26T23:45:08.909Z,22.54
2023-06-26T23:47:36.583Z,22.53
2023-06-26T23:50:04.058Z,22.53
2023-06-26T23:52:31.763Z,22.56
2023-06-26T23:54:59.788Z,22.50
2023-06-26T23:57:27.462Z,22.51
2023-06-26T23:59:54.809Z,22.53
